Time;durP1;ratioP1;P1;durP2;ratioP2;P2;SDS_P1;SDS_P2;PMS_P1;PMS_P2;Temp;Humidity;BMP_temperature;BMP_pressure;BME280_temperature;BME280_humidity;BME280_pressure;Samples;Min_cycle;Max_cycle;Signal;HPM_P1;HPM_P2
2023/12/13 00:01:40;;;;;;;;;;;17.90;48.20;;;;;;1589063;74;1535;-73
2023/12/13 00:03:42;;;;;;;;;;;18.00;48.20;;;;;;1585216;73;718;-73
2023/12/13 00:05:44;;;;;;;;;;;17.90;48.10;;;;;;1586605;74;1239;-74
2023/12/13 00:07:46;;;;;;;;;;;18.00;48.20;;;;;;1585328;74;667;-76
2023/12/13 00:09:48;;;;;;;;;;;18.00;48.20;;;;;;1582664;74;716;-76
2023/12/13 00:11:50;;;;;;;;;;;18.00;48.20;;;;;;1578082;74;1923;-75
2023/12/13 00:13:51;;;;;;;;;;;17.90;48.10;;;;;;1568965;74;582;-74
2023/12/13 00:15:53;;;;;;;;;;;18.00;48.10;;;;;;1578843;73;1104;-73
2023/12/13 00:17:56;;;;;;;;;;;18.00;48.10;;;;;;1590550;74;699;-75
2023/12/13 00:19:58;;;;;;;;;;;18.00;48.10;;;;;;1588852;74;723;-74
2023/12/13 00:21:59;;;;;;;;;;;17.90;48.10;;;;;;1581298;73;617;-75
2023/12/13 00:24:02;;;;;;;;;;;18.00;48.20;;;;;;1592959;74;811;-75
2023/12/13 00:26:04;;;;;;;;;;;18.00;48.10;;;;;;1573504;74;1114;-75
2023/12/13 00:28:06;;;;;;;;;;;17.90;48.10;;;;;;1580449;73;720;-73
2023/12/13 00:30:09;;;;;;;;;;;18.00;48.10;;;;;;1580584;73;676;-75
2023/12/13 00:32:12;;;;;;;;;;;18.00;48.10;;;;;;1581304;74;1902;-76
2023/12/13 00:34:14;;;;;;;;;;;18.00;48.10;;;;;;1582513;74;773;-73
2023/12/13 00:36:16;;;;;;;;;;;18.00;48.10;;;;;;1586698;73;1116;-73
2023/12/13 00:38:18;;;;;;;;;;;18.00;48.10;;;;;;1580621;74;795;-74
2023/12/13 00:40:22;;;;;;;;;;;18.00;48.10;;;;;;1578878;74;716;-74
2023/12/13 00:42:23;;;;;;;;;;;18.00;48.10;;;;;;1585404;73;1127;-74
2023/12/13 00:44:25;;;;;;;;;;;18.00;48.10;;;;;;1548482;75;747;-76
2023/12/13 00:46:27;;;;;;;;;;;17.90;48.10;;;;;;1582738;73;1153;-72
2023/12/13 00:48:29;;;;;;;;;;;18.00;48.10;;;;;;1576930;73;773;-73
2023/12/13 00:50:31;;;;;;;;;;;18.00;48.10;;;;;;1587447;73;1926;-73
2023/12/13 00:52:32;;;;;;;;;;;18.00;48.10;;;;;;1583453;73;755;-73
2023/12/13 00:54:34;;;;;;;;;;;18.00;48.10;;;;;;1586498;74;1090;-73
2023/12/13 00:56:36;;;;;;;;;;;18.00;48.10;;;;;;1579433;74;719;-74
2023/12/13 00:58:38;;;;;;;;;;;17.90;48.10;;;;;;1582754;74;768;-74
2023/12/13 01:00:40;;;;;;;;;;;18.00;48.10;;;;;;1582297;74;691;-73
2023/12/13 01:02:42;;;;;;;;;;;17.70;48.00;;;;;;1580064;74;728;-74
2023/12/13 01:04:44;;;;;;;;;;;18.00;48.10;;;;;;1583422;73;1178;-74
2023/12/13 01:06:46;;;;;;;;;;;18.00;48.10;;;;;;1586461;74;787;-75
2023/12/13 01:08:48;;;;;;;;;;;18.00;48.10;;;;;;1583803;74;815;-74
2023/12/13 01:10:50;;;;;;;;;;;18.00;48.10;;;;;;1584615;74;1939;-74
2023/12/13 01:12:52;;;;;;;;;;;18.00;48.10;;;;;;1585518;73;687;-75
2023/12/13 01:14:54;;;;;;;;;;;18.00;48.10;;;;;;1583007;74;1268;-74
2023/12/13 01:16:56;;;;;;;;;;;18.00;48.10;;;;;;1554929;75;607;-74
2023/12/13 01:18:57;;;;;;;;;;;18.00;48.10;;;;;;1559894;75;697;-75
2023/12/13 01:20:59;;;;;;;;;;;18.00;48.10;;;;;;1526586;76;803;-75
2023/12/13 01:23:01;;;;;;;;;;;18.00;48.10;;;;;;1525792;76;727;-74
2023/12/13 01:25:03;;;;;;;;;;;18.00;48.10;;;;;;1564070;75;1112;-73
2023/12/13 01:27:05;;;;;;;;;;;18.00;48.10;;;;;;1560988;75;806;-76
2023/12/13 01:29:07;;;;;;;;;;;18.00;48.00;;;;;;1554255;75;1076;-74
2023/12/13 01:31:09;;;;;;;;;;;18.00;48.10;;;;;;1552971;75;1936;-75
2023/12/13 01:33:11;;;;;;;;;;;18.00;48.10;;;;;;1554233;75;703;-73
2023/12/13 01:35:12;;;;;;;;;;;18.00;48.10;;;;;;1547996;75;1149;-75
2023/12/13 01:37:14;;;;;;;;;;;17.90;48.10;;;;;;1551454;75;718;-74
2023/12/13 01:39:16;;;;;;;;;;;18.00;48.10;;;;;;1553980;75;585;-74
2023/12/13 01:41:18;;;;;;;;;;;18.00;48.10;;;;;;1552728;75;782;-75
2023/12/13 01:43:26;;;;;;;;;;;18.00;48.10;;;;;;1556807;75;734;-75
2023/12/13 01:45:28;;;;;;;;;;;18.00;48.10;;;;;;1554637;75;1181;-77
2023/12/13 01:47:31;;;;;;;;;;;18.00;48.10;;;;;;1561978;75;668;-76
2023/12/13 01:49:33;;;;;;;;;;;18.00;48.10;;;;;;1563211;75;848;-75
2023/12/13 01:51:35;;;;;;;;;;;17.90;48.10;;;;;;1580413;73;1938;-74
2023/12/13 01:53:37;;;;;;;;;;;18.00;48.10;;;;;;1587423;74;1538;-75
2023/12/13 01:55:39;;;;;;;;;;;17.90;48.10;;;;;;1579339;73;1123;-75
2023/12/13 01:57:41;;;;;;;;;;;18.00;48.10;;;;;;1584512;73;802;-73
2023/12/13 01:59:43;;;;;;;;;;;18.00;48.10;;;;;;1582984;73;711;-75
2023/12/13 02:01:44;;;;;;;;;;;18.00;48.10;;;;;;1587743;74;671;-74
2023/12/13 02:03:46;;;;;;;;;;;18.00;48.10;;;;;;1577027;73;715;-74
2023/12/13 02:05:51;;;;;;;;;;;18.00;48.10;;;;;;1585189;74;1179;-73
2023/12/13 02:07:53;;;;;;;;;;;18.00;48.10;;;;;;1584896;74;802;-75
2023/12/13 02:09:55;;;;;;;;;;;18.00;48.10;;;;;;1583899;73;732;-73
2023/12/13 02:11:57;;;;;;;;;;;18.00;48.10;;;;;;1588247;74;1929;-73
2023/12/13 02:13:58;;;;;;;;;;;18.00;48.10;;;;;;1581585;73;705;-74
2023/12/13 02:16:00;;;;;;;;;;;17.90;48.00;;;;;;1587469;74;1255;-76
2023/12/13 02:18:02;;;;;;;;;;;18.00;48.10;;;;;;1592622;73;750;-76
2023/12/13 02:20:05;;;;;;;;;;;18.00;48.10;;;;;;1580923;74;708;-72
2023/12/13 02:22:07;;;;;;;;;;;18.00;48.10;;;;;;1581662;74;715;-75
2023/12/13 02:24:09;;;;;;;;;;;18.00;48.10;;;;;;1584525;74;681;-76
2023/12/13 02:26:11;;;;;;;;;;;17.90;48.10;;;;;;1588138;74;1093;-75
2023/12/13 02:28:13;;;;;;;;;;;18.00;48.10;;;;;;1588828;74;813;-73
2023/12/13 02:30:14;;;;;;;;;;;17.90;48.20;;;;;;1583704;74;713;-75
2023/12/13 02:32:16;;;;;;;;;;;18.00;48.10;;;;;;1581070;74;1931;-74
2023/12/13 02:34:18;;;;;;;;;;;17.90;48.10;;;;;;1575889;74;740;-75
2023/12/13 02:36:20;;;;;;;;;;;18.00;48.10;;;;;;1587460;73;1120;-75
2023/12/13 02:38:22;;;;;;;;;;;17.90;48.10;;;;;;1592492;73;812;-74
2023/12/13 02:40:24;;;;;;;;;;;18.00;48.10;;;;;;1583468;73;715;-73
2023/12/13 02:42:26;;;;;;;;;;;17.90;48.10;;;;;;1583636;74;693;-75
2023/12/13 02:44:27;;;;;;;;;;;18.00;48.10;;;;;;1583342;73;682;-73
2023/12/13 02:46:29;;;;;;;;;;;18.00;48.10;;;;;;1580762;74;1153;-74
2023/12/13 02:48:31;;;;;;;;;;;18.00;48.10;;;;;;1586663;74;763;-73
2023/12/13 02:50:38;;;;;;;;;;;18.00;48.10;;;;;;1587981;74;1582;-74
2023/12/13 02:52:40;;;;;;;;;;;18.00;48.10;;;;;;1582287;73;1930;-76
2023/12/13 02:54:42;;;;;;;;;;;17.90;48.10;;;;;;1586203;74;1104;-74
2023/12/13 02:56:43;;;;;;;;;;;18.00;48.10;;;;;;1583497;74;672;-74
2023/12/13 02:58:45;;;;;;;;;;;18.00;48.10;;;;;;1576414;73;705;-74
2023/12/13 03:00:48;;;;;;;;;;;18.00;48.10;;;;;;1583992;74;602;-74
2023/12/13 03:02:50;;;;;;;;;;;17.90;48.10;;;;;;1590829;73;725;-76
2023/12/13 03:04:52;;;;;;;;;;;17.90;48.10;;;;;;1576957;74;1216;-76
2023/12/13 03:06:54;;;;;;;;;;;17.90;48.10;;;;;;1579784;74;725;-75
2023/12/13 03:08:55;;;;;;;;;;;18.00;48.10;;;;;;1585309;74;693;-75
2023/12/13 03:10:57;;;;;;;;;;;17.90;48.10;;;;;;1530689;77;1060;-73
2023/12/13 03:12:59;;;;;;;;;;;18.00;48.10;;;;;;1527821;76;1940;-76
2023/12/13 03:15:01;;;;;;;;;;;18.00;48.10;;;;;;1531632;76;1104;-75
2023/12/13 03:17:03;;;;;;;;;;;18.00;48.10;;;;;;1549258;75;694;-75
2023/12/13 03:19:05;;;;;;;;;;;18.00;48.10;;;;;;1532531;76;614;-75
2023/12/13 03:21:07;;;;;;;;;;;18.00;48.10;;;;;;1524144;76;742;-76
2023/12/13 03:23:10;;;;;;;;;;;18.00;48.10;;;;;;1527845;76;731;-74
2023/12/13 03:25:11;;;;;;;;;;;18.00;48.10;;;;;;1538389;76;1119;-75
2023/12/13 03:27:14;;;;;;;;;;;18.00;48.10;;;;;;1524805;77;598;-74
2023/12/13 03:29:15;;;;;;;;;;;18.00;48.10;;;;;;1557055;75;710;-74
2023/12/13 03:31:17;;;;;;;;;;;18.00;48.10;;;;;;1531338;76;731;-74
2023/12/13 03:33:19;;;;;;;;;;;18.00;48.20;;;;;;1524337;76;1948;-73
2023/12/13 03:35:21;;;;;;;;;;;18.00;48.20;;;;;;1528403;76;1146;-74
2023/12/13 03:37:23;;;;;;;;;;;17.90;48.10;;;;;;1528009;76;819;-74
2023/12/13 03:39:25;;;;;;;;;;;17.90;48.10;;;;;;1523997;76;724;-76
2023/12/13 03:41:27;;;;;;;;;;;17.90;48.10;;;;;;1547072;75;669;-73
2023/12/13 03:43:29;;;;;;;;;;;17.90;48.10;;;;;;1561069;75;672;-74
2023/12/13 03:45:30;;;;;;;;;;;17.90;48.10;;;;;;1582884;74;1195;-74
2023/12/13 03:47:32;;;;;;;;;;;18.00;48.10;;;;;;1577291;73;717;-75
2023/12/13 03:49:34;;;;;;;;;;;18.00;48.10;;;;;;1577612;73;799;-75
2023/12/13 03:51:36;;;;;;;;;;;18.00;48.10;;;;;;1583562;74;1940;-74
2023/12/13 03:53:39;;;;;;;;;;;18.00;48.20;;;;;;1582989;74;719;-75
2023/12/13 03:55:41;;;;;;;;;;;17.90;48.10;;;;;;1550762;75;1125;-75
2023/12/13 03:57:43;;;;;;;;;;;18.00;48.10;;;;;;1560461;74;828;-74
2023/12/13 03:59:45;;;;;;;;;;;18.00;48.10;;;;;;1531009;76;796;-74
2023/12/13 04:01:47;;;;;;;;;;;17.90;48.10;;;;;;1530976;76;751;-74
2023/12/13 04:03:49;;;;;;;;;;;17.90;48.10;;;;;;1586642;74;784;-74
2023/12/13 04:05:50;;;;;;;;;;;17.90;48.20;;;;;;1583370;74;1175;-75
2023/12/13 04:07:52;;;;;;;;;;;18.00;48.20;;;;;;1587962;74;796;-76
2023/12/13 04:09:54;;;;;;;;;;;17.90;48.20;;;;;;1583136;74;611;-77
2023/12/13 04:11:57;;;;;;;;;;;17.90;48.10;;;;;;1590371;74;1937;-75
2023/12/13 04:13:59;;;;;;;;;;;18.00;48.10;;;;;;1581938;74;760;-75
2023/12/13 04:16:00;;;;;;;;;;;17.90;48.10;;;;;;1578800;73;1140;-73
2023/12/13 04:18:03;;;;;;;;;;;17.90;48.20;;;;;;1590278;74;717;-73
2023/12/13 04:20:05;;;;;;;;;;;18.00;48.10;;;;;;1587066;73;705;-74
2023/12/13 04:22:07;;;;;;;;;;;18.00;48.20;;;;;;1581264;73;848;-75
2023/12/13 04:24:09;;;;;;;;;;;17.90;48.20;;;;;;1584409;73;825;-75
2023/12/13 04:26:11;;;;;;;;;;;17.90;48.20;;;;;;1579651;74;1144;-75
2023/12/13 04:28:13;;;;;;;;;;;17.90;48.10;;;;;;1584983;73;720;-73
2023/12/13 04:30:15;;;;;;;;;;;18.00;48.10;;;;;;1578884;74;737;-75
2023/12/13 04:32:17;;;;;;;;;;;17.90;48.10;;;;;;1583968;73;1937;-74
2023/12/13 04:34:19;;;;;;;;;;;17.90;48.20;;;;;;1583966;73;681;-75
2023/12/13 04:36:21;;;;;;;;;;;18.00;48.10;;;;;;1578298;74;1120;-74
2023/12/13 04:38:23;;;;;;;;;;;18.00;48.10;;;;;;1581163;73;667;-73
2023/12/13 04:40:25;;;;;;;;;;;18.00;48.20;;;;;;1580074;73;675;-76
2023/12/13 04:42:27;;;;;;;;;;;17.90;48.20;;;;;;1582932;74;1581;-74
2023/12/13 04:44:30;;;;;;;;;;;17.90;48.10;;;;;;1583258;73;718;-75
2023/12/13 04:46:32;;;;;;;;;;;18.00;48.10;;;;;;1570961;73;1112;-76
2023/12/13 04:48:34;;;;;;;;;;;17.90;48.10;;;;;;1573971;74;716;-73
2023/12/13 04:50:36;;;;;;;;;;;17.90;48.10;;;;;;1573969;74;712;-75
2023/12/13 04:52:38;;;;;;;;;;;17.90;48.10;;;;;;1585245;73;1937;-73
2023/12/13 04:54:40;;;;;;;;;;;17.90;48.10;;;;;;1584418;74;1163;-74
2023/12/13 04:56:43;;;;;;;;;;;18.00;48.10;;;;;;1588932;73;655;-75
2023/12/13 04:58:44;;;;;;;;;;;17.90;48.10;;;;;;1576940;74;762;-73
2023/12/13 05:00:48;;;;;;;;;;;18.00;48.10;;;;;;1585454;74;728;-74
2023/12/13 05:02:50;;;;;;;;;;;18.00;48.10;;;;;;1531504;77;1451;-76
2023/12/13 05:04:52;;;;;;;;;;;17.90;48.10;;;;;;1557302;74;1170;-76
2023/12/13 05:06:54;;;;;;;;;;;18.00;48.10;;;;;;1528591;76;732;-75
2023/12/13 05:08:56;;;;;;;;;;;17.90;48.10;;;;;;1514963;76;799;-75
2023/12/13 05:10:59;;;;;;;;;;;17.90;48.10;;;;;;1557858;74;834;-74
2023/12/13 05:13:01;;;;;;;;;;;18.00;48.10;;;;;;1580254;74;1905;-75
2023/12/13 05:15:04;;;;;;;;;;;18.00;48.10;;;;;;1575853;73;1122;-75
2023/12/13 05:17:05;;;;;;;;;;;17.90;48.10;;;;;;1582470;73;733;-75
2023/12/13 05:19:07;;;;;;;;;;;18.00;48.10;;;;;;1574935;74;713;-74
2023/12/13 05:21:09;;;;;;;;;;;17.90;48.10;;;;;;1579902;74;837;-76
2023/12/13 05:23:11;;;;;;;;;;;18.00;48.10;;;;;;1577591;73;812;-76
2023/12/13 05:25:13;;;;;;;;;;;18.00;48.10;;;;;;1581700;73;1149;-75
2023/12/13 05:27:15;;;;;;;;;;;18.00;48.10;;;;;;1584241;74;751;-73
2023/12/13 05:29:17;;;;;;;;;;;17.90;48.10;;;;;;1583189;73;719;-74
2023/12/13 05:31:24;;;;;;;;;;;17.90;48.10;;;;;;1574167;74;708;-75
2023/12/13 05:33:26;;;;;;;;;;;18.00;48.10;;;;;;1582154;74;1925;-74
2023/12/13 05:35:28;;;;;;;;;;;18.00;48.10;;;;;;1573645;73;1120;-73
2023/12/13 05:37:30;;;;;;;;;;;18.00;48.10;;;;;;1576212;74;768;-76
2023/12/13 05:39:32;;;;;;;;;;;18.00;48.10;;;;;;1586942;73;1574;-73
2023/12/13 05:41:34;;;;;;;;;;;18.00;48.10;;;;;;1585102;73;779;-75
2023/12/13 05:43:36;;;;;;;;;;;18.00;48.10;;;;;;1581154;73;738;-72
2023/12/13 05:45:38;;;;;;;;;;;18.00;48.10;;;;;;1575689;74;1146;-73
2023/12/13 05:47:40;;;;;;;;;;;18.00;48.10;;;;;;1575634;74;655;-74
2023/12/13 05:49:42;;;;;;;;;;;18.00;48.10;;;;;;1583548;74;727;-76
2023/12/13 05:51:44;;;;;;;;;;;17.90;48.10;;;;;;1581422;74;894;-77
2023/12/13 05:53:46;;;;;;;;;;;17.90;48.10;;;;;;1579826;73;1918;-74
2023/12/13 05:55:48;;;;;;;;;;;18.00;48.10;;;;;;1576212;74;1142;-73
2023/12/13 05:57:50;;;;;;;;;;;18.00;48.10;;;;;;1577450;74;597;-73
2023/12/13 05:59:52;;;;;;;;;;;18.00;48.10;;;;;;1579436;73;731;-76
2023/12/13 06:01:54;;;;;;;;;;;18.00;48.10;;;;;;1584542;73;669;-77
2023/12/13 06:03:56;;;;;;;;;;;18.00;48.10;;;;;;1587199;73;722;-75
2023/12/13 06:05:58;;;;;;;;;;;18.00;48.10;;;;;;1587675;74;1187;-74
2023/12/13 06:08:00;;;;;;;;;;;18.00;48.10;;;;;;1578525;73;658;-75
2023/12/13 06:10:02;;;;;;;;;;;18.00;48.10;;;;;;1585361;74;830;-75
2023/12/13 06:12:04;;;;;;;;;;;18.00;48.10;;;;;;1579511;74;712;-74
2023/12/13 06:14:06;;;;;;;;;;;18.00;48.10;;;;;;1577123;74;1948;-74
2023/12/13 06:16:12;;;;;;;;;;;18.00;48.10;;;;;;1579388;74;1133;-75
2023/12/13 06:18:11;;;;;;;;;;;18.00;48.10;;;;;;1578743;73;1118;-75
2023/12/13 06:20:13;;;;;;;;;;;18.00;48.10;;;;;;1578641;73;779;-73
2023/12/13 06:22:15;;;;;;;;;;;18.00;48.10;;;;;;1570847;74;1028;-76
2023/12/13 06:24:17;;;;;;;;;;;18.00;48.10;;;;;;1574979;73;733;-74
2023/12/13 06:26:19;;;;;;;;;;;18.00;48.10;;;;;;1585279;73;1158;-75
2023/12/13 06:28:22;;;;;;;;;;;17.90;48.10;;;;;;1581603;73;725;-75
2023/12/13 06:30:24;;;;;;;;;;;18.00;48.10;;;;;;1572849;74;712;-74
2023/12/13 06:32:26;;;;;;;;;;;18.00;48.10;;;;;;1580906;73;720;-75
2023/12/13 06:34:28;;;;;;;;;;;18.00;48.10;;;;;;1584544;73;1939;-73
2023/12/13 06:36:29;;;;;;;;;;;18.00;48.10;;;;;;1583952;73;1112;-73
2023/12/13 06:38:31;;;;;;;;;;;18.00;48.10;;;;;;1583121;73;791;-73
2023/12/13 06:40:33;;;;;;;;;;;18.00;48.10;;;;;;1589602;73;721;-75
2023/12/13 06:42:35;;;;;;;;;;;17.90;48.10;;;;;;1579741;73;678;-76
2023/12/13 06:44:37;;;;;;;;;;;18.00;48.20;;;;;;1579058;74;1161;-76
2023/12/13 06:46:39;;;;;;;;;;;17.90;48.20;;;;;;1578923;74;749;-75
2023/12/13 06:48:41;;;;;;;;;;;17.90;48.20;;;;;;1581952;74;696;-73
2023/12/13 06:50:43;;;;;;;;;;;17.90;48.20;;;;;;1587946;74;823;-75
2023/12/13 06:52:47;;;;;;;;;;;18.00;48.10;;;;;;1577536;74;1919;-74
2023/12/13 06:54:48;;;;;;;;;;;18.00;48.10;;;;;;1585372;74;1160;-74
2023/12/13 06:56:50;;;;;;;;;;;18.00;48.10;;;;;;1586245;74;664;-75
2023/12/13 06:58:52;;;;;;;;;;;18.00;48.10;;;;;;1583565;74;697;-73
2023/12/13 07:00:54;;;;;;;;;;;18.00;48.10;;;;;;1586269;74;692;-72
2023/12/13 07:02:56;;;;;;;;;;;18.00;48.10;;;;;;1580246;73;759;-73
2023/12/13 07:04:58;;;;;;;;;;;18.00;48.20;;;;;;1581785;73;1173;-73
2023/12/13 07:07:00;;;;;;;;;;;18.00;48.10;;;;;;1576317;73;716;-75
2023/12/13 07:09:02;;;;;;;;;;;18.00;48.10;;;;;;1577368;73;767;-75
2023/12/13 07:11:04;;;;;;;;;;;18.00;48.10;;;;;;1585539;74;755;-74
2023/12/13 07:13:06;;;;;;;;;;;17.90;48.10;;;;;;1582151;74;1936;-73
2023/12/13 07:15:10;;;;;;;;;;;18.00;48.10;;;;;;1569288;73;1189;-73
2023/12/13 07:17:12;;;;;;;;;;;18.00;48.10;;;;;;1585507;74;629;-75
2023/12/13 07:19:14;;;;;;;;;;;18.00;48.10;;;;;;1575068;74;666;-74
2023/12/13 07:21:16;;;;;;;;;;;18.00;48.20;;;;;;1589510;74;637;-74
2023/12/13 07:23:18;;;;;;;;;;;17.90;48.10;;;;;;1581110;74;758;-75
2023/12/13 07:25:20;;;;;;;;;;;18.00;48.20;;;;;;1577070;74;1148;-75
2023/12/13 07:27:22;;;;;;;;;;;17.90;48.10;;;;;;1575758;74;656;-74
2023/12/13 07:29:23;;;;;;;;;;;18.00;48.20;;;;;;1586502;73;729;-74
2023/12/13 07:31:25;;;;;;;;;;;17.90;48.20;;;;;;1581865;73;1462;-74
2023/12/13 07:33:27;;;;;;;;;;;17.90;48.10;;;;;;1580277;73;1929;-75
2023/12/13 07:35:29;;;;;;;;;;;18.00;48.20;;;;;;1582022;74;1132;-76
2023/12/13 07:37:31;;;;;;;;;;;17.90;48.20;;;;;;1585522;74;723;-72
2023/12/13 07:39:35;;;;;;;;;;;18.00;48.20;;;;;;1582863;74;708;-74
2023/12/13 07:41:36;;;;;;;;;;;17.90;48.20;;;;;;1583257;74;1013;-74
2023/12/13 07:43:39;;;;;;;;;;;17.90;48.10;;;;;;1578593;74;612;-73
2023/12/13 07:45:41;;;;;;;;;;;17.90;48.20;;;;;;1581162;73;1137;-74
2023/12/13 07:47:46;;;;;;;;;;;18.00;48.10;;;;;;1582829;74;798;-74
2023/12/13 07:49:47;;;;;;;;;;;17.90;48.20;;;;;;1586008;74;1099;-74
2023/12/13 07:51:49;;;;;;;;;;;17.90;48.20;;;;;;1575673;73;759;-74
2023/12/13 07:53:51;;;;;;;;;;;17.90;48.20;;;;;;1579376;74;1938;-75
2023/12/13 07:55:53;;;;;;;;;;;17.90;48.20;;;;;;1581940;74;1176;-75
2023/12/13 07:57:55;;;;;;;;;;;18.00;48.20;;;;;;1574278;74;678;-76
2023/12/13 07:59:57;;;;;;;;;;;17.90;48.10;;;;;;1580289;74;724;-75
2023/12/13 08:01:59;;;;;;;;;;;17.90;48.20;;;;;;1587648;73;705;-75
2023/12/13 08:04:01;;;;;;;;;;;17.90;48.20;;;;;;1583158;74;935;-72
2023/12/13 08:06:03;;;;;;;;;;;18.00;48.20;;;;;;1588691;74;1203;-75
2023/12/13 08:08:05;;;;;;;;;;;17.90;48.20;;;;;;1571784;75;1170;-76
2023/12/13 08:10:07;;;;;;;;;;;18.00;48.20;;;;;;1570403;73;746;-76
2023/12/13 08:12:09;;;;;;;;;;;18.00;48.30;;;;;;1578779;74;700;-75
2023/12/13 08:14:11;;;;;;;;;;;18.00;48.20;;;;;;1587441;73;1948;-75
2023/12/13 08:16:13;;;;;;;;;;;18.00;48.20;;;;;;1587789;74;1096;-74
2023/12/13 08:18:15;;;;;;;;;;;17.90;48.20;;;;;;1580429;73;798;-74
2023/12/13 08:20:17;;;;;;;;;;;17.90;48.30;;;;;;1579464;74;713;-74
2023/12/13 08:22:19;;;;;;;;;;;18.00;48.20;;;;;;1578153;74;714;-74
2023/12/13 08:24:21;;;;;;;;;;;17.90;48.30;;;;;;1577043;74;820;-74
2023/12/13 08:26:25;;;;;;;;;;;17.90;48.20;;;;;;1583285;73;1129;-73
2023/12/13 08:28:27;;;;;;;;;;;18.00;48.30;;;;;;1584112;74;2055;-75
2023/12/13 08:30:28;;;;;;;;;;;17.90;48.30;;;;;;1580794;73;1060;-75
2023/12/13 08:32:30;;;;;;;;;;;17.90;48.30;;;;;;1581971;74;729;-76
2023/12/13 08:34:33;;;;;;;;;;;17.90;48.20;;;;;;1578964;73;1923;-74
2023/12/13 08:36:34;;;;;;;;;;;18.00;48.30;;;;;;1580254;73;1100;-75
2023/12/13 08:38:37;;;;;;;;;;;17.90;48.20;;;;;;1575211;74;756;-73
2023/12/13 08:40:39;;;;;;;;;;;18.00;48.30;;;;;;1582413;73;697;-74
2023/12/13 08:42:40;;;;;;;;;;;17.90;48.30;;;;;;1580915;74;786;-74
2023/12/13 08:44:43;;;;;;;;;;;17.90;48.30;;;;;;1585740;73;1094;-74
2023/12/13 08:46:46;;;;;;;;;;;17.90;48.30;;;;;;1581427;74;629;-73
2023/12/13 08:48:47;;;;;;;;;;;17.90;48.20;;;;;;1574596;74;663;-75
2023/12/13 08:50:49;;;;;;;;;;;17.90;48.30;;;;;;1578732;73;679;-75
2023/12/13 08:52:51;;;;;;;;;;;17.90;48.30;;;;;;1581882;74;991;-75
2023/12/13 08:54:54;;;;;;;;;;;18.00;48.30;;;;;;1580874;73;1909;-75
2023/12/13 08:56:55;;;;;;;;;;;17.90;48.30;;;;;;1582230;74;715;-74
2023/12/13 08:58:58;;;;;;;;;;;17.90;48.30;;;;;;1571205;73;768;-74
2023/12/13 09:01:00;;;;;;;;;;;17.90;48.30;;;;;;1574526;74;607;-75
2023/12/13 09:03:02;;;;;;;;;;;18.00;48.30;;;;;;1579355;74;723;-74
2023/12/13 09:05:04;;;;;;;;;;;18.00;48.30;;;;;;1582072;73;1147;-73
2023/12/13 09:07:06;;;;;;;;;;;17.90;48.30;;;;;;1580923;74;742;-73
2023/12/13 09:09:11;;;;;;;;;;;17.90;48.30;;;;;;1581866;74;727;-75
2023/12/13 09:11:12;;;;;;;;;;;17.90;48.30;;;;;;1579722;74;1103;-75
2023/12/13 09:13:13;;;;;;;;;;;17.90;48.30;;;;;;1576568;74;764;-74
2023/12/13 09:15:18;;;;;;;;;;;18.00;48.30;;;;;;1579244;74;1921;-73
2023/12/13 09:17:19;;;;;;;;;;;17.90;48.30;;;;;;1570183;73;916;-75
2023/12/13 09:19:21;;;;;;;;;;;17.90;48.30;;;;;;1578049;73;749;-73
2023/12/13 09:21:24;;;;;;;;;;;18.00;48.30;;;;;;1581658;74;655;-73
2023/12/13 09:23:26;;;;;;;;;;;17.90;48.40;;;;;;1579926;73;1552;-76
2023/12/13 09:25:28;;;;;;;;;;;17.90;48.30;;;;;;1579376;73;1223;-73
2023/12/13 09:27:30;;;;;;;;;;;17.90;48.30;;;;;;1582444;74;760;-76
2023/12/13 09:29:32;;;;;;;;;;;17.90;48.40;;;;;;1581129;73;726;-75
2023/12/13 09:31:34;;;;;;;;;;;17.90;48.30;;;;;;1573917;74;758;-74
2023/12/13 09:33:36;;;;;;;;;;;18.00;48.40;;;;;;1591709;74;681;-72
2023/12/13 09:35:38;;;;;;;;;;;18.00;48.30;;;;;;1586584;74;1137;-74
2023/12/13 09:37:41;;;;;;;;;;;17.90;48.30;;;;;;1579004;73;706;-73
2023/12/13 09:39:45;;;;;;;;;;;17.90;48.30;;;;;;1574199;73;742;-76
2023/12/13 09:41:54;;;;;;;;;;;17.90;48.30;;;;;;1577553;74;1165;-75
2023/12/13 09:43:57;;;;;;;;;;;17.90;48.40;;;;;;1575262;73;689;-76
2023/12/13 09:45:59;;;;;;;;;;;17.90;48.30;;;;;;1574778;73;1150;-75
2023/12/13 09:48:02;;;;;;;;;;;18.00;48.30;;;;;;1582995;74;720;-74
2023/12/13 09:50:04;;;;;;;;;;;17.90;48.30;;;;;;1581363;74;825;-74
2023/12/13 09:52:09;;;;;;;;;;;18.00;48.40;;;;;;1579304;73;818;-72
2023/12/13 09:54:11;;;;;;;;;;;18.00;48.40;;;;;;1583248;73;1921;-76
2023/12/13 09:56:13;;;;;;;;;;;17.90;48.40;;;;;;1581332;74;1240;-75
2023/12/13 09:58:14;;;;;;;;;;;17.90;48.40;;;;;;1586024;73;784;-75
2023/12/13 10:00:17;;;;;;;;;;;18.00;48.40;;;;;;1585263;74;724;-76
2023/12/13 10:02:19;;;;;;;;;;;17.90;48.30;;;;;;1585852;73;845;-74
2023/12/13 10:04:21;;;;;;;;;;;17.90;48.40;;;;;;1588295;74;849;-75
2023/12/13 10:06:23;;;;;;;;;;;17.90;48.40;;;;;;1582965;74;1118;-75
2023/12/13 10:08:25;;;;;;;;;;;17.90;48.40;;;;;;1577395;74;732;-77
2023/12/13 10:10:29;;;;;;;;;;;17.90;48.40;;;;;;1583486;73;844;-77
2023/12/13 10:12:31;;;;;;;;;;;17.90;48.40;;;;;;1574515;74;815;-73
2023/12/13 10:14:34;;;;;;;;;;;17.90;48.40;;;;;;1581319;74;1931;-74
2023/12/13 10:16:39;;;;;;;;;;;17.90;48.40;;;;;;1584349;74;735;-74
2023/12/13 10:18:41;;;;;;;;;;;17.90;48.30;;;;;;1585352;74;715;-75
2023/12/13 10:20:45;;;;;;;;;;;17.90;48.40;;;;;;1582386;74;1422;-74
2023/12/13 10:22:46;;;;;;;;;;;18.00;48.40;;;;;;1579297;73;729;-75
2023/12/13 10:24:48;;;;;;;;;;;17.90;48.40;;;;;;1588313;74;1180;-74
2023/12/13 10:26:55;;;;;;;;;;;17.90;48.40;;;;;;1571716;73;741;-76
2023/12/13 10:28:54;;;;;;;;;;;18.00;48.40;;;;;;1579524;73;802;-75
2023/12/13 10:30:56;;;;;;;;;;;17.90;48.40;;;;;;1577821;74;710;-75
2023/12/13 10:32:58;;;;;;;;;;;18.00;48.40;;;;;;1573878;74;594;-77
2023/12/13 10:35:02;;;;;;;;;;;17.90;48.30;;;;;;1580152;73;1934;-75
2023/12/13 10:37:04;;;;;;;;;;;17.90;48.40;;;;;;1582020;74;725;-76
2023/12/13 10:39:07;;;;;;;;;;;17.90;48.40;;;;;;1580817;74;715;-73
2023/12/13 10:41:09;;;;;;;;;;;17.90;48.40;;;;;;1585773;73;760;-73
2023/12/13 10:43:11;;;;;;;;;;;17.90;48.30;;;;;;1582054;73;1099;-74
2023/12/13 10:45:13;;;;;;;;;;;17.90;48.30;;;;;;1581189;73;1152;-74
2023/12/13 10:47:15;;;;;;;;;;;17.90;48.40;;;;;;1586262;74;724;-77
2023/12/13 10:49:17;;;;;;;;;;;17.90;48.30;;;;;;1580176;73;610;-75
2023/12/13 10:51:18;;;;;;;;;;;17.90;48.40;;;;;;1586594;73;834;-75
2023/12/13 10:53:20;;;;;;;;;;;17.90;48.40;;;;;;1584736;74;665;-73
2023/12/13 10:55:23;;;;;;;;;;;17.90;48.30;;;;;;1582236;73;1942;-74
2023/12/13 10:57:25;;;;;;;;;;;17.90;48.40;;;;;;1578268;73;742;-74
2023/12/13 10:59:27;;;;;;;;;;;17.90;48.40;;;;;;1581425;74;726;-74
2023/12/13 11:01:28;;;;;;;;;;;17.90;48.40;;;;;;1579051;73;661;-75
2023/12/13 11:03:38;;;;;;;;;;;18.00;48.40;;;;;;1582226;73;687;-74
2023/12/13 11:05:40;;;;;;;;;;;18.00;48.40;;;;;;1579329;73;1156;-73
2023/12/13 11:07:45;;;;;;;;;;;18.00;48.40;;;;;;1583874;74;707;-75
2023/12/13 11:09:49;;;;;;;;;;;18.00;48.30;;;;;;1580180;74;764;-76
2023/12/13 11:11:51;;;;;;;;;;;17.90;48.30;;;;;;1579734;73;1047;-74
2023/12/13 11:13:53;;;;;;;;;;;18.00;48.30;;;;;;1584689;74;512;-73
2023/12/13 11:15:55;;;;;;;;;;;18.00;48.30;;;;;;1583869;74;1949;-75
2023/12/13 11:18:00;;;;;;;;;;;18.00;48.30;;;;;;1585332;74;707;-76
2023/12/13 11:20:09;;;;;;;;;;;18.00;48.30;;;;;;1581330;73;976;-74
2023/12/13 11:22:06;;;;;;;;;;;18.00;48.30;;;;;;1573641;74;1122;-72
2023/12/13 11:24:15;;;;;;;;;;;18.00;48.20;;;;;;1585886;74;725;-74
2023/12/13 11:26:19;;;;;;;;;;;18.00;48.30;;;;;;1583677;73;1145;-74
2023/12/13 11:28:24;;;;;;;;;;;18.00;48.20;;;;;;1591149;73;717;-75
2023/12/13 11:30:26;;;;;;;;;;;18.00;48.20;;;;;;1580850;74;698;-75
2023/12/13 11:32:33;;;;;;;;;;;18.00;48.20;;;;;;1577764;74;741;-73
2023/12/13 11:34:36;;;;;;;;;;;18.10;48.30;;;;;;1576603;74;1913;-75
2023/12/13 11:36:39;;;;;;;;;;;18.00;48.20;;;;;;1579790;74;660;-75
2023/12/13 11:38:40;;;;;;;;;;;18.00;48.20;;;;;;1579499;74;674;-73
2023/12/13 11:40:42;;;;;;;;;;;18.10;48.30;;;;;;1582901;73;707;-76
2023/12/13 11:42:44;;;;;;;;;;;18.10;48.40;;;;;;1570816;74;746;-75
2023/12/13 11:44:46;;;;;;;;;;;18.10;48.30;;;;;;1586409;74;1120;-75
2023/12/13 11:46:55;;;;;;;;;;;18.10;48.30;;;;;;1579770;74;675;-75
2023/12/13 11:48:56;;;;;;;;;;;18.00;48.10;;;;;;1582922;74;728;-73
2023/12/13 11:50:59;;;;;;;;;;;18.10;48.20;;;;;;1577166;73;658;-76
2023/12/13 11:53:01;;;;;;;;;;;18.10;48.20;;;;;;1586341;73;681;-74
2023/12/13 11:55:03;;;;;;;;;;;18.10;48.30;;;;;;1570709;74;1927;-73
2023/12/13 11:57:14;;;;;;;;;;;18.10;48.20;;;;;;1578458;74;755;-74
2023/12/13 11:59:19;;;;;;;;;;;18.10;48.20;;;;;;1588195;74;760;-75
2023/12/13 12:01:20;;;;;;;;;;;18.10;48.20;;;;;;1583422;74;1148;-73
2023/12/13 12:03:22;;;;;;;;;;;18.00;48.10;;;;;;1581244;73;813;-75
2023/12/13 12:05:24;;;;;;;;;;;18.10;48.10;;;;;;1573340;74;1149;-76
2023/12/13 12:07:26;;;;;;;;;;;18.10;48.10;;;;;;1583247;74;626;-76
2023/12/13 12:09:28;;;;;;;;;;;18.10;48.10;;;;;;1581428;74;714;-76